Time;durP1;ratioP1;P1;durP2;ratioP2;P2;SDS_P1;SDS_P2;PMS_P1;PMS_P2;Temp;Humidity;BMP_temperature;BMP_pressure;BME280_temperature;BME280_humidity;BME280_pressure;Samples;Min_cycle;Max_cycle;Signal;HPM_P1;HPM_P2
2023/12/29 00:00:31;;;;;;;9;5.1;;;;;;;6.11;71.69141;939.9222;;;;
2023/12/29 00:03:09;;;;;;;9.4;5.2;;;;;;;6.04;72.25781;939.9188;;;;
2023/12/29 00:05:50;;;;;;;7.4;5.1;;;;;;;6.02;72.73828;939.9568;;;;
2023/12/29 00:08:27;;;;;;;6.3;4.1;;;;;;;6.02;71.87988;939.9576;;;;
2023/12/29 00:11:07;;;;;;;6.9;4.5;;;;;;;5.91;72.20215;939.9606;;;;
2023/12/29 00:13:47;;;;;;;6.7;3.9;;;;;;;5.92;71.23047;939.8723;;;;
2023/12/29 00:16:21;;;;;;;7.4;4.2;;;;;;;5.84;71.81738;939.8405;;;;
2023/12/29 00:18:50;;;;;;;5.7;3.9;;;;;;;5.74;71.91406;939.9439;;;;
2023/12/29 00:21:23;;;;;;;5.5;3.6;;;;;;;5.75;71.81152;939.9174;;;;
2023/12/29 00:23:49;;;;;;;4.7;3;;;;;;;5.61;71.99121;939.8663;;;;
2023/12/29 00:26:14;;;;;;;4.6;3.1;;;;;;;5.6;72.11523;939.8747;;;;
2023/12/29 00:28:44;;;;;;;5.6;3.4;;;;;;;5.53;72.31543;939.8177;;;;
2023/12/29 00:31:09;;;;;;;4.7;3.2;;;;;;;5.45;72.7207;939.7167;;;;
2023/12/29 00:33:46;;;;;;;3.9;2.8;;;;;;;5.38;72.49414;939.7386;;;;
2023/12/29 00:36:17;;;;;;;4;2.6;;;;;;;5.29;72.71582;939.7769;;;;
2023/12/29 00:38:52;;;;;;;3.3;2.4;;;;;;;5.3;72.48242;939.7963;;;;
2023/12/29 00:41:17;;;;;;;6.8;3.4;;;;;;;5.28;72.11621;939.7813;;;;
2023/12/29 00:43:46;;;;;;;8.1;4.9;;;;;;;5.21;72.30762;939.8075;;;;
2023/12/29 00:46:12;;;;;;;8.5;5.2;;;;;;;5.17;73.54199;939.8265;;;;
2023/12/29 00:48:37;;;;;;;8.8;4.6;;;;;;;5.16;74.36328;939.7742;;;;
2023/12/29 00:51:06;;;;;;;6.3;4.3;;;;;;;5.12;74.2666;939.7462;;;;
2023/12/29 00:53:33;;;;;;;8.9;4.6;;;;;;;5.14;73.69336;939.6795;;;;
2023/12/29 00:55:59;;;;;;;6;3.9;;;;;;;5.08;73.85254;939.7014;;;;
2023/12/29 00:58:24;;;;;;;6.8;4.1;;;;;;;5.06;73.81445;939.7125;;;;
2023/12/29 01:00:50;;;;;;;7.9;4.7;;;;;;;4.96;74.10352;939.7447;;;;
2023/12/29 01:03:20;;;;;;;11.9;6.4;;;;;;;4.9;73.76563;939.6763;;;;
2023/12/29 01:05:49;;;;;;;8.5;4.5;;;;;;;4.89;73.69824;939.8427;;;;
2023/12/29 01:08:15;;;;;;;6.5;3.6;;;;;;;4.88;73.59375;939.8714;;;;
2023/12/29 01:10:43;;;;;;;4.8;3.5;;;;;;;4.93;73.52246;939.8777;;;;
2023/12/29 01:13:08;;;;;;;8.2;4.8;;;;;;;4.93;73.62402;939.9155;;;;
2023/12/29 01:15:35;;;;;;;9;4.9;;;;;;;4.89;73.75293;939.9324;;;;
2023/12/29 01:18:00;;;;;;;7.7;4.5;;;;;;;4.86;73.73633;939.8928;;;;
2023/12/29 01:20:26;;;;;;;7.2;4.3;;;;;;;4.77;73.88965;939.9645;;;;
2023/12/29 01:22:54;;;;;;;7.7;4.2;;;;;;;4.65;73.95996;939.9644;;;;
2023/12/29 01:25:26;;;;;;;5;3.1;;;;;;;4.56;73.7627;939.8898;;;;
2023/12/29 01:27:51;;;;;;;4.8;3.3;;;;;;;4.6;74.04004;939.8959;;;;
2023/12/29 01:30:25;;;;;;;4.6;3.2;;;;;;;4.72;73.80371;939.9242;;;;
2023/12/29 01:32:50;;;;;;;4.7;3;;;;;;;4.68;73.84082;939.896;;;;
2023/12/29 01:35:24;;;;;;;5.4;3.2;;;;;;;4.63;74.06738;939.7916;;;;
2023/12/29 01:37:55;;;;;;;4.7;3;;;;;;;4.54;74.2998;939.8608;;;;
2023/12/29 01:40:27;;;;;;;5.8;3.1;;;;;;;4.45;74.46387;939.8639;;;;
2023/12/29 01:42:52;;;;;;;4.3;3;;;;;;;4.48;74.34473;939.775;;;;
2023/12/29 01:45:26;;;;;;;4.5;2.8;;;;;;;4.58;74.05957;939.7235;;;;
2023/12/29 01:47:50;;;;;;;4.9;2.7;;;;;;;4.56;73.63965;939.7134;;;;
2023/12/29 01:50:18;;;;;;;3;2.3;;;;;;;4.48;74.20996;939.7687;;;;
2023/12/29 01:52:45;;;;;;;3;2.4;;;;;;;4.29;74.37012;939.7896;;;;
2023/12/29 01:55:10;;;;;;;3.4;2.4;;;;;;;4.2;74.55664;939.8115;;;;
2023/12/29 01:57:41;;;;;;;4.3;2.7;;;;;;;4.17;74.29102;939.8244;;;;
2023/12/29 02:00:07;;;;;;;3.6;2.1;;;;;;;4.18;73.95703;939.8123;;;;
2023/12/29 02:02:32;;;;;;;3.4;1.9;;;;;;;4.16;73.89648;939.7484;;;;
2023/12/29 02:05:05;;;;;;;4.5;2.5;;;;;;;4.11;75.2832;939.7477;;;;
2023/12/29 02:07:35;;;;;;;4.1;2.5;;;;;;;4.21;75.43457;939.8237;;;;
2023/12/29 02:10:05;;;;;;;4.1;2.4;;;;;;;4.31;74.74316;939.8942;;;;
2023/12/29 02:12:32;;;;;;;3.1;2;;;;;;;4.24;74.76563;939.7768;;;;
2023/12/29 02:14:57;;;;;;;3.3;2.4;;;;;;;4.13;75.00488;939.7916;;;;
2023/12/29 02:17:27;;;;;;;2.3;2;;;;;;;4.12;75.1709;939.7737;;;;
2023/12/29 02:19:52;;;;;;;4.9;2.1;;;;;;;4.07;75.18555;939.7453;;;;
2023/12/29 02:22:20;;;;;;;3;2.3;;;;;;;3.95;75.24316;939.6358;;;;
2023/12/29 02:24:45;;;;;;;3.1;2.1;;;;;;;3.86;75.35059;939.623;;;;
2023/12/29 02:27:13;;;;;;;2.6;1.8;;;;;;;3.83;75.33301;939.5667;;;;
2023/12/29 02:29:38;;;;;;;3.3;1.9;;;;;;;3.77;75.06543;939.5754;;;;
2023/12/29 02:32:04;;;;;;;10.1;5.7;;;;;;;3.8;75.75586;939.5394;;;;
2023/12/29 02:34:28;;;;;;;4.6;2.7;;;;;;;3.92;75.41699;939.4866;;;;
2023/12/29 02:36:55;;;;;;;3.8;2.6;;;;;;;3.83;75.55957;939.5275;;;;
2023/12/29 02:39:20;;;;;;;3.5;2.4;;;;;;;3.99;75.26074;939.4766;;;;
2023/12/29 02:41:47;;;;;;;3.5;2.6;;;;;;;3.94;75.66895;939.3882;;;;
2023/12/29 02:44:12;;;;;;;4.4;2.5;;;;;;;3.96;75.40234;939.4441;;;;
2023/12/29 02:46:42;;;;;;;2.5;2.3;;;;;;;3.78;75.61719;939.2756;;;;
2023/12/29 02:49:11;;;;;;;3.6;2.2;;;;;;;3.72;75.87598;939.3097;;;;
2023/12/29 02:51:32;;;;;;;1.9;1.7;;;;;;;3.83;75.02051;939.1756;;;;
2023/12/29 02:54:00;;;;;;;2.5;1.7;;;;;;;3.82;75.07422;939.1689;;;;
2023/12/29 02:56:25;;;;;;;1.8;1.4;;;;;;;3.93;74.10449;939.165;;;;
2023/12/29 02:58:51;;;;;;;1.6;1.4;;;;;;;4.01;73.91602;939.0222;;;;
2023/12/29 03:01:16;;;;;;;2;1.7;;;;;;;4.02;73.55664;938.9554;;;;
2023/12/29 03:03:45;;;;;;;3.6;1.7;;;;;;;4.13;73.08301;938.9777;;;;
2023/12/29 03:06:10;;;;;;;2.8;1.8;;;;;;;4.14;73.58887;938.9061;;;;
2023/12/29 03:08:39;;;;;;;3.3;1.8;;;;;;;4.06;73.77734;938.7988;;;;
2023/12/29 03:11:05;;;;;;;2;1.8;;;;;;;3.94;74.15137;938.7227;;;;
2023/12/29 03:13:37;;;;;;;2.1;1.9;;;;;;;3.87;74.60938;938.6562;;;;
2023/12/29 03:16:06;;;;;;;3.6;2.1;;;;;;;3.78;75.06641;938.6646;;;;
2023/12/29 03:18:31;;;;;;;2.8;1.8;;;;;;;3.73;75.36035;938.5383;;;;
2023/12/29 03:20:56;;;;;;;4.5;2.3;;;;;;;3.69;75.52246;938.4606;;;;
2023/12/29 03:23:28;;;;;;;4.3;2.2;;;;;;;3.83;75.46777;938.4799;;;;
2023/12/29 03:25:55;;;;;;;3.3;2.1;;;;;;;3.76;75.52441;938.3876;;;;
2023/12/29 03:28:20;;;;;;;3.7;2.1;;;;;;;3.68;76.11621;938.3408;;;;
2023/12/29 03:30:47;;;;;;;2.7;1.9;;;;;;;3.69;76.81543;938.3506;;;;
2023/12/29 03:33:12;;;;;;;2.2;1.8;;;;;;;3.77;75.83105;938.2952;;;;
2023/12/29 03:35:40;;;;;;;2.3;1.7;;;;;;;3.81;75.11621;938.3848;;;;
2023/12/29 03:38:05;;;;;;;2.3;1.5;;;;;;;3.84;74.45801;938.3016;;;;
2023/12/29 03:40:34;;;;;;;2.8;1.8;;;;;;;3.84;74.1543;938.4348;;;;
2023/12/29 03:43:00;;;;;;;3.3;1.8;;;;;;;3.8;74.33887;938.4141;;;;
2023/12/29 03:45:24;;;;;;;3.6;2;;;;;;;3.91;74.22461;938.4435;;;;
2023/12/29 03:47:51;;;;;;;3.5;1.9;;;;;;;3.86;74.7998;938.4269;;;;
2023/12/29 03:50:22;;;;;;;2.6;1.9;;;;;;;3.9;74.7627;938.4904;;;;
2023/12/29 03:52:53;;;;;;;1.8;1.6;;;;;;;3.87;75.11621;938.5627;;;;
2023/12/29 03:55:21;;;;;;;3;1.8;;;;;;;3.85;75.02344;938.543;;;;
2023/12/29 03:57:46;;;;;;;3;1.7;;;;;;;3.95;74.89453;938.7191;;;;
2023/12/29 04:02:35;;;;;;;2.2;1.7;;;;;;;4.05;74.94629;938.7053;;;;
2023/12/29 04:05:04;;;;;;;2.6;2.1;;;;;;;3.99;75.32813;938.6903;;;;
2023/12/29 04:07:28;;;;;;;3.8;2.9;;;;;;;3.97;75.41504;938.6014;;;;
2023/12/29 04:09:53;;;;;;;2.9;2.7;;;;;;;3.97;75.4375;938.5503;;;;
2023/12/29 04:12:18;;;;;;;3.4;3.1;;;;;;;4.06;75.25098;938.6316;;;;
2023/12/29 04:14:44;;;;;;;3.2;2.9;;;;;;;3.95;75.48047;938.5592;;;;
2023/12/29 04:17:13;;;;;;;3.2;2.8;;;;;;;3.95;75.33301;938.5197;;;;
2023/12/29 04:19:34;;;;;;;3.2;2.6;;;;;;;3.99;75.45215;938.4526;;;;
2023/12/29 04:22:05;;;;;;;2.9;2.1;;;;;;;4.05;75.30762;938.5037;;;;
2023/12/29 04:24:39;;;;;;;2.4;2;;;;;;;4.1;75.19043;938.436;;;;
2023/12/29 04:27:10;;;;;;;2.6;1.9;;;;;;;4.18;74.51953;938.5175;;;;
2023/12/29 04:29:37;;;;;;;1.9;1.7;;;;;;;4.12;75.26074;938.4225;;;;
2023/12/29 04:32:02;;;;;;;2.2;1.8;;;;;;;4.21;74.69141;938.402;;;;
2023/12/29 04:34:27;;;;;;;2.3;1.8;;;;;;;4.21;74.64844;938.3162;;;;
2023/12/29 04:36:59;;;;;;;2.2;1.5;;;;;;;4.2;74.56738;938.3;;;;
2023/12/29 04:39:24;;;;;;;1.9;1.4;;;;;;;4.26;74.15137;938.2651;;;;
2023/12/29 04:41:53;;;;;;;1.9;1.6;;;;;;;4.23;74.04199;938.1711;;;;
2023/12/29 04:44:18;;;;;;;1.6;1.5;;;;;;;4.28;73.83887;938.28;;;;
2023/12/29 04:46:46;;;;;;;1.6;1.4;;;;;;;4.21;74.5127;938.2438;;;;
2023/12/29 04:49:12;;;;;;;2.5;1.7;;;;;;;4.23;74.24512;938.1584;;;;
2023/12/29 04:51:40;;;;;;;2.9;1.6;;;;;;;4.32;73.6543;938.1448;;;;
2023/12/29 04:54:05;;;;;;;1.6;1.5;;;;;;;4.39;72.94629;938.2166;;;;
2023/12/29 04:56:32;;;;;;;1.7;1.6;;;;;;;4.41;72.99609;938.0419;;;;
2023/12/29 04:58:59;;;;;;;2.6;1.4;;;;;;;4.48;70.77637;938.1503;;;;
2023/12/29 05:01:25;;;;;;;1.9;1.5;;;;;;;4.5;71.0957;938.1423;;;;
2023/12/29 05:03:50;;;;;;;1.8;1.3;;;;;;;4.47;71.14746;938.2012;;;;
2023/12/29 05:06:18;;;;;;;1.6;1.4;;;;;;;4.45;71.35742;938.1295;;;;
2023/12/29 05:08:43;;;;;;;2;1.5;;;;;;;4.52;70.97559;938.1138;;;;
2023/12/29 05:11:10;;;;;;;2.1;1.6;;;;;;;4.5;71.20703;938.2786;;;;
2023/12/29 05:13:35;;;;;;;2.8;2.1;;;;;;;4.4;72.58789;938.1992;;;;
2023/12/29 05:16:05;;;;;;;3.1;2.3;;;;;;;4.3;73.4707;938.2161;;;;
2023/12/29 05:18:29;;;;;;;3.1;2.2;;;;;;;4.22;74.25391;938.1817;;;;
2023/12/29 05:20:59;;;;;;;3.4;2.4;;;;;;;4.13;74.69043;938.3117;;;;
2023/12/29 05:23:24;;;;;;;3;2.3;;;;;;;3.98;75.71094;938.3231;;;;
2023/12/29 05:25:51;;;;;;;4.1;2.4;;;;;;;3.94;75.9502;938.2642;;;;
2023/12/29 05:28:18;;;;;;;3.3;2.3;;;;;;;3.9;75.73926;938.3737;;;;
2023/12/29 05:30:48;;;;;;;3.7;2;;;;;;;3.88;76.03027;938.4283;;;;
2023/12/29 05:33:21;;;;;;;4.5;2.6;;;;;;;3.89;76.08594;938.4892;;;;
2023/12/29 05:35:51;;;;;;;5.6;2.5;;;;;;;3.89;75.98535;938.5829;;;;
2023/12/29 05:38:17;;;;;;;3.8;2.7;;;;;;;3.91;75.94531;938.5884;;;;
2023/12/29 05:40:48;;;;;;;3.6;2.4;;;;;;;3.78;76.5957;938.7126;;;;
2023/12/29 05:43:13;;;;;;;5;2.9;;;;;;;3.63;76.88379;938.795;;;;
2023/12/29 05:45:43;;;;;;;3.4;2.5;;;;;;;3.58;77.18848;938.6997;;;;
2023/12/29 05:48:17;;;;;;;3.1;2.3;;;;;;;3.54;77.49512;938.6054;;;;
2023/12/29 05:50:49;;;;;;;3.5;2.3;;;;;;;3.59;77.17871;938.6088;;;;
2023/12/29 05:53:20;;;;;;;3.7;2.4;;;;;;;3.55;77.58789;938.7506;;;;
2023/12/29 05:55:47;;;;;;;3.6;2.2;;;;;;;3.51;77.43359;938.7413;;;;
2023/12/29 05:58:12;;;;;;;5.8;2.9;;;;;;;3.51;77.71484;938.8247;;;;
2023/12/29 06:00:47;;;;;;;4.7;3.1;;;;;;;3.56;77.84668;938.7288;;;;
2023/12/29 06:03:14;;;;;;;6.6;4.3;;;;;;;3.46;77.89746;938.7892;;;;
2023/12/29 06:05:39;;;;;;;6.1;3.7;;;;;;;3.45;77.88281;938.8728;;;;
2023/12/29 06:08:10;;;;;;;7.2;3.7;;;;;;;3.54;77.98926;938.8942;;;;
2023/12/29 06:10:36;;;;;;;6;4.3;;;;;;;3.57;77.84961;939.0073;;;;
2023/12/29 06:13:00;;;;;;;6.8;3.9;;;;;;;3.53;78.12207;938.9757;;;;
2023/12/29 06:15:29;;;;;;;6;3.5;;;;;;;3.49;78.2168;938.9124;;;;
2023/12/29 06:17:54;;;;;;;6;3.6;;;;;;;3.41;78.23535;938.9999;;;;
2023/12/29 06:20:22;;;;;;;16;9.7;;;;;;;3.47;78.42676;938.9658;;;;
2023/12/29 06:22:47;;;;;;;15.1;9.7;;;;;;;3.42;78.58496;938.9481;;;;
2023/12/29 06:25:12;;;;;;;8.1;5.7;;;;;;;3.45;78.34375;938.9469;;;;
2023/12/29 06:27:40;;;;;;;8.1;5.1;;;;;;;3.49;78.07227;938.9447;;;;
2023/12/29 06:30:04;;;;;;;5.9;4.2;;;;;;;3.66;77.5166;939.1533;;;;
2023/12/29 06:32:33;;;;;;;4.6;3.4;;;;;;;3.63;77.69141;939.0681;;;;
2023/12/29 06:34:59;;;;;;;4.5;3;;;;;;;3.53;77.60547;939.0373;;;;
2023/12/29 06:37:25;;;;;;;6.1;3.6;;;;;;;3.62;77.49805;939.0864;;;;
2023/12/29 06:39:53;;;;;;;6.1;4;;;;;;;3.54;77.77539;939.0233;;;;
2023/12/29 06:42:18;;;;;;;14.4;8.4;;;;;;;3.48;78.34961;938.9905;;;;
2023/12/29 06:44:47;;;;;;;14.8;9.2;;;;;;;3.55;78.27148;939.0331;;;;
2023/12/29 06:47:18;;;;;;;14.4;9.4;;;;;;;3.6;77.73145;939.0161;;;;
2023/12/29 06:49:48;;;;;;;12.1;7.9;;;;;;;3.55;77.7793;938.9931;;;;
2023/12/29 06:52:13;;;;;;;10.1;6.9;;;;;;;3.58;77.69434;938.976;;;;
2023/12/29 06:54:41;;;;;;;9.6;6.3;;;;;;;3.53;77.78516;938.8752;;;;
2023/12/29 06:57:05;;;;;;;8.3;5.7;;;;;;;3.51;77.74805;938.7562;;;;
2023/12/29 06:59:34;;;;;;;10.7;7.1;;;;;;;3.6;77.49707;938.9108;;;;
2023/12/29 07:01:59;;;;;;;14.9;9.5;;;;;;;3.58;77.36816;938.98;;;;
2023/12/29 07:04:28;;;;;;;14;10.3;;;;;;;3.47;77.87793;938.9188;;;;
2023/12/29 07:07:01;;;;;;;12.3;10.3;;;;;;;3.52;77.83984;938.9069;;;;
2023/12/29 07:09:26;;;;;;;19.5;15.4;;;;;;;3.58;77.24512;938.9155;;;;
2023/12/29 07:11:59;;;;;;;9.1;7;;;;;;;3.56;77.20605;938.9863;;;;
2023/12/29 07:14:27;;;;;;;12.6;7.3;;;;;;;3.55;77.44238;939.0389;;;;
2023/12/29 07:16:58;;;;;;;13.2;8.4;;;;;;;3.64;77.49023;939.1438;;;;
2023/12/29 07:19:22;;;;;;;9.9;6;;;;;;;3.66;77.58398;939.1997;;;;
2023/12/29 07:21:52;;;;;;;7.8;5;;;;;;;3.7;77.78516;939.3604;;;;
2023/12/29 07:24:20;;;;;;;6.4;4.4;;;;;;;3.69;77.93848;939.2325;;;;
2023/12/29 07:26:45;;;;;;;6.3;5.2;;;;;;;3.73;77.89063;939.2355;;;;
2023/12/29 07:29:14;;;;;;;6;4.8;;;;;;;3.72;78.15723;939.2617;;;;
2023/12/29 07:31:40;;;;;;;5;4.2;;;;;;;3.71;78.33496;939.4222;;;;
2023/12/29 07:34:06;;;;;;;7.2;4;;;;;;;3.77;78.59375;939.6211;;;;
2023/12/29 07:36:35;;;;;;;5.9;4;;;;;;;3.77;78.22168;939.5147;;;;
2023/12/29 07:39:04;;;;;;;5.5;4;;;;;;;3.83;78.08887;939.3914;;;;
2023/12/29 07:41:35;;;;;;;6;4;;;;;;;3.95;78.02051;939.6042;;;;
2023/12/29 07:44:06;;;;;;;6.5;3.4;;;;;;;4.08;77.70801;939.525;;;;
2023/12/29 07:46:33;;;;;;;7.1;4.2;;;;;;;4.18;77.23047;939.3844;;;;
2023/12/29 07:49:01;;;;;;;7.8;4.5;;;;;;;4.25;76.92871;939.3597;;;;
2023/12/29 07:51:27;;;;;;;6.4;4.5;;;;;;;4.46;75.88574;939.363;;;;
2023/12/29 07:53:57;;;;;;;5.6;4.5;;;;;;;4.4;76.34766;939.2807;;;;
2023/12/29 07:56:22;;;;;;;9.2;5.5;;;;;;;4.4;76.57227;939.3248;;;;
2023/12/29 07:58:49;;;;;;;20;7.8;;;;;;;4.43;76.81348;939.384;;;;
2023/12/29 08:01:21;;;;;;;13.5;6.3;;;;;;;4.47;76.27051;939.3311;;;;
2023/12/29 08:03:53;;;;;;;10.8;6.3;;;;;;;4.46;76.45801;939.4;;;;
2023/12/29 08:06:28;;;;;;;8.6;6.9;;;;;;;4.51;76.01953;939.4681;;;;
2023/12/29 08:08:55;;;;;;;11.1;7.1;;;;;;;4.51;76.42285;939.483;;;;
2023/12/29 08:11:27;;;;;;;9.6;6.1;;;;;;;4.55;76.44043;939.4447;;;;
2023/12/29 08:13:52;;;;;;;7.5;4.4;;;;;;;4.64;75.92871;939.4238;;;;
2023/12/29 08:16:28;;;;;;;8.2;3.8;;;;;;;4.72;75.22266;939.3689;;;;
2023/12/29 08:19:01;;;;;;;5.9;3.8;;;;;;;4.85;74.71582;939.3464;;;;
2023/12/29 08:21:35;;;;;;;7.4;3.3;;;;;;;4.82;74.54199;939.3645;;;;
2023/12/29 08:24:03;;;;;;;8.4;4.2;;;;;;;4.97;74.53125;939.2896;;;;
2023/12/29 08:26:28;;;;;;;6.1;4.9;;;;;;;5.02;74.83594;939.4155;;;;
2023/12/29 08:28:56;;;;;;;13.1;7.2;;;;;;;5.15;74.4502;939.4067;;;;
2023/12/29 08:31:22;;;;;;;10;7.2;;;;;;;5.14;74.64063;939.3962;;;;
2023/12/29 08:33:46;;;;;;;10.4;7.1;;;;;;;5.2;74.37109;939.4369;;;;
2023/12/29 08:36:22;;;;;;;10.4;6.4;;;;;;;5.22;74.67871;939.4126;;;;
2023/12/29 08:38:56;;;;;;;10.2;6.5;;;;;;;5.31;73.98242;939.4001;;;;
2023/12/29 08:41:24;;;;;;;10.1;6.5;;;;;;;5.37;74.02734;939.3184;;;;
2023/12/29 08:43:53;;;;;;;9.5;6.9;;;;;;;5.43;74.41016;939.3276;;;;
2023/12/29 08:46:18;;;;;;;11;7.4;;;;;;;5.47;74.30566;939.325;;;;
2023/12/29 08:48:47;;;;;;;9.8;6.7;;;;;;;5.56;73.30371;939.3156;;;;
2023/12/29 08:51:19;;;;;;;9.1;6.7;;;;;;;5.61;72.7373;939.353;;;;
2023/12/29 08:53:48;;;;;;;10.9;7;;;;;;;5.69;72.9541;939.3807;;;;
2023/12/29 08:56:15;;;;;;;8.9;7;;;;;;;5.84;71.75;939.4026;;;;
2023/12/29 08:58:41;;;;;;;10.3;7.9;;;;;;;5.92;71.1748;939.3651;;;;
2023/12/29 09:01:10;;;;;;;12.1;6;;;;;;;6.06;70.76758;939.3596;;;;
2023/12/29 09:03:41;;;;;;;8.4;5.9;;;;;;;6.26;70.29199;939.3773;;;;
2023/12/29 09:06:08;;;;;;;10.4;6.4;;;;;;;6.43;69.77832;939.3024;;;;
2023/12/29 09:08:43;;;;;;;7.6;5.1;;;;;;;6.45;69.76855;939.2925;;;;
2023/12/29 09:11:14;;;;;;;9.9;5.4;;;;;;;6.49;70.18164;939.303;;;;
2023/12/29 09:13:39;;;;;;;6.5;4.9;;;;;;;6.56;69.99121;939.343;;;;
2023/12/29 09:16:06;;;;;;;6.1;4;;;;;;;6.7;70.11719;939.3192;;;;
2023/12/29 09:18:31;;;;;;;7.9;4;;;;;;;6.8;69.62402;939.2307;;;;
2023/12/29 09:20:58;;;;;;;6.4;3.9;;;;;;;6.88;68.69531;939.2083;;;;
2023/12/29 09:23:25;;;;;;;6.4;3.6;;;;;;;6.99;68.36328;939.2054;;;;
2023/12/29 09:25:53;;;;;;;8.3;3.8;;;;;;;6.98;68.74707;939.15;;;;
2023/12/29 09:28:18;;;;;;;5.1;3.5;;;;;;;7.07;67.53711;939.1356;;;;
2023/12/29 09:30:43;;;;;;;6.6;3.7;;;;;;;7.17;67.15723;939.1705;;;;
2023/12/29 09:33:12;;;;;;;4.7;3.4;;;;;;;7.3;67.47168;939.1222;;;;
2023/12/29 09:35:36;;;;;;;5.5;3.3;;;;;;;7.47;66.98828;939.163;;;;
2023/12/29 09:38:06;;;;;;;4.8;3.7;;;;;;;7.7;66.60547;939.188;;;;
2023/12/29 09:40:31;;;;;;;11.3;6.5;;;;;;;7.87;65.08789;939.2166;;;;
2023/12/29 09:42:56;;;;;;;7.4;3.6;;;;;;;7.92;64.58496;939.2659;;;;
2023/12/29 09:45:24;;;;;;;4.9;3.3;;;;;;;8.19;64.52246;939.1518;;;;
2023/12/29 09:47:59;;;;;;;6.9;4.2;;;;;;;8.43;62.75195;939.0818;;;;
2023/12/29 09:50:33;;;;;;;4.4;3.2;;;;;;;8.48;61.6582;939.1052;;;;
2023/12/29 09:52:58;;;;;;;6.1;3.9;;;;;;;8.68;61.35645;939.1019;;;;
2023/12/29 09:55:26;;;;;;;7.9;4.4;;;;;;;8.72;60.89648;939.0336;;;;
2023/12/29 09:57:52;;;;;;;7.8;4.4;;;;;;;8.82;60.49023;938.988;;;;
2023/12/29 10:00:21;;;;;;;7.6;4.7;;;;;;;8.93;60.21973;938.9977;;;;
2023/12/29 10:02:49;;;;;;;4.7;3.1;;;;;;;8.94;59.27832;938.8978;;;;
2023/12/29 10:05:14;;;;;;;5.3;3;;;;;;;9.09;58.99121;938.8322;;;;
2023/12/29 10:07:40;;;;;;;5.6;2.9;;;;;;;9.27;57.82031;938.8137;;;;
2023/12/29 10:10:06;;;;;;;5;2.6;;;;;;;9.38;57.6748;938.7836;;;;
2023/12/29 10:12:37;;;;;;;4;2.8;;;;;;;9.53;57.94727;938.7431;;;;
2023/12/29 10:15:09;;;;;;;5.3;3;;;;;;;9.79;57.35449;938.6498;;;;
2023/12/29 10:17:41;;;;;;;4.3;2.4;;;;;;;9.9;57.18652;938.6142;;;;
2023/12/29 10:20:06;;;;;;;5.1;2.7;;;;;;;10.06;57.32227;938.5488;;;;
2023/12/29 10:22:31;;;;;;;4.9;2.4;;;;;;;10.03;57.13574;938.5859;;;;
2023/12/29 10:24:58;;;;;;;6.5;2.8;;;;;;;10.13;58.08301;938.5598;;;;
2023/12/29 10:27:24;;;;;;;4;2.5;;;;;;;10.25;56.57129;938.5594;;;;
2023/12/29 10:29:55;;;;;;;4.1;2.4;;;;;;;10.32;56.44434;938.5197;;;;
2023/12/29 10:32:20;;;;;;;5.1;2.4;;;;;;;10.27;56.65332;938.4379;;;;
2023/12/29 10:34:45;;;;;;;6.6;2.9;;;;;;;10.35;57.34961;938.4086;;;;
2023/12/29 10:37:19;;;;;;;3.8;2.3;;;;;;;10.45;54.65723;938.2562;;;;
2023/12/29 10:39:38;;;;;;;4.4;2;;;;;;;10.53;53.57129;938.2466;;;;
2023/12/29 10:42:03;;;;;;;3.1;1.6;;;;;;;10.58;52.5498;938.1825;;;;
2023/12/29 10:44:33;;;;;;;4.4;1.7;;;;;;;10.58;52.86816;938.1316;;;;
2023/12/29 10:46:58;;;;;;;2.1;1.7;;;;;;;10.63;53.16113;938.1044;;;;
2023/12/29 10:49:29;;;;;;;3;1.9;;;;;;;10.57;54.02051;938.0464;;;;
2023/12/29 10:51:55;;;;;;;3.4;1.8;;;;;;;10.56;54.31641;937.9841;;;;
2023/12/29 10:54:26;;;;;;;3.9;1.8;;;;;;;10.64;54.40527;937.9453;;;;
2023/12/29 10:56:55;;;;;;;3.3;1.9;;;;;;;10.66;54.78613;937.8339;;;;
2023/12/29 10:59:25;;;;;;;2.6;2;;;;;;;10.76;53.91895;937.7217;;;;
2023/12/29 11:01:53;;;;;;;4.9;2.8;;;;;;;10.97;51.94531;937.7203;;;;
2023/12/29 11:04:19;;;;;;;6.3;3.1;;;;;;;11;51.70898;937.7356;;;;
2023/12/29 11:06:47;;;;;;;5.8;2.5;;;;;;;11.02;52.2373;937.7065;;;;
2023/12/29 11:09:11;;;;;;;4.1;2.4;;;;;;;11.04;51.15332;937.7386;;;;
2023/12/29 11:11:37;;;;;;;2.7;2.1;;;;;;;10.98;52.65527;937.6519;;;;
2023/12/29 11:14:02;;;;;;;3.9;2.3;;;;;;;10.97;53.37305;937.6598;;;;
2023/12/29 11:16:35;;;;;;;3.8;1.7;;;;;;;11.07;50.99609;937.6854;;;;
2023/12/29 11:19:10;;;;;;;3.2;1.8;;;;;;;11.14;51.07324;937.7058;;;;
2023/12/29 11:21:35;;;;;;;3;1.6;;;;;;;11.18;51.04395;937.6255;;;;
2023/12/29 11:24:00;;;;;;;3;1.8;;;;;;;11.24;51.69141;937.5656;;;;
2023/12/29 11:26:26;;;;;;;3.2;1.9;;;;;;;11.22;52.1123;937.5829;;;;
2023/12/29 11:28:52;;;;;;;4.2;1.9;;;;;;;11.27;51.85547;937.4877;;;;
2023/12/29 11:31:17;;;;;;;4.4;1.8;;;;;;;11.34;52.18457;937.4227;;;;
2023/12/29 11:33:46;;;;;;;3.4;1.8;;;;;;;11.37;52.13086;937.3646;;;;
2023/12/29 11:36:13;;;;;;;2.9;1.9;;;;;;;11.37;51.88965;937.3391;;;;
2023/12/29 11:38:37;;;;;;;2.7;1.8;;;;;;;11.41;52.79883;937.3624;;;;
2023/12/29 11:41:08;;;;;;;4;2.1;;;;;;;11.49;52.01758;937.3375;;;;
2023/12/29 11:43:33;;;;;;;3.6;2.3;;;;;;;11.48;51.28418;937.2952;;;;
2023/12/29 11:45:58;;;;;;;3.2;2;;;;;;;11.43;50.84473;937.2847;;;;
2023/12/29 11:48:25;;;;;;;3.1;1.9;;;;;;;11.44;51.39551;937.2608;;;;
2023/12/29 11:50:50;;;;;;;3.4;2.1;;;;;;;11.4;52.38574;937.1981;;;;
2023/12/29 11:53:17;;;;;;;4.1;2.3;;;;;;;11.39;51.93848;937.2467;;;;
2023/12/29 11:55:44;;;;;;;3.7;1.9;;;;;;;11.34;51.60156;937.1994;;;;
2023/12/29 11:58:12;;;;;;;2.5;1.6;;;;;;;11.39;51.11426;937.2084;;;;
2023/12/29 12:00:36;;;;;;;3.6;1.8;;;;;;;11.37;52.08398;937.1908;;;;
2023/12/29 12:03:09;;;;;;;2;1.7;;;;;;;11.37;52.29004;937.2371;;;;
2023/12/29 12:05:39;;;;;;;2.8;1.5;;;;;;;11.41;50.625;937.228;;;;
2023/12/29 12:08:04;;;;;;;2.7;1.7;;;;;;;11.46;50.37988;937.2154;;;;
2023/12/29 12:10:33;;;;;;;2.1;1.9;;;;;;;11.5;50.36035;937.1861;;;;
2023/12/29 12:13:00;;;;;;;4.9;2.1;;;;;;;11.43;50.3291;937.1993;;;;
2023/12/29 12:15:25;;;;;;;3.8;1.8;;;;;;;11.43;51.13086;937.2145;;;;
2023/12/29 12:17:50;;;;;;;2.7;1.5;;;;;;;11.5;50.91016;937.123;;;;
2023/12/29 12:20:25;;;;;;;2.3;1.7;;;;;;;11.56;50.70996;937.1655;;;;
2023/12/29 12:22:54;;;;;;;4;1.8;;;;;;;11.55;50.7793;937.187;;;;
2023/12/29 12:25:19;;;;;;;2;1.6;;;;;;;11.54;50.70898;937.128;;;;
2023/12/29 12:27:50;;;;;;;2.5;1.9;;;;;;;11.47;50.78125;937.1253;;;;
2023/12/29 12:30:22;;;;;;;3.8;2;;;;;;;11.51;50.44238;937.0648;;;;
2023/12/29 12:32:55;;;;;;;4.2;2.2;;;;;;;11.5;50.28027;937.0592;;;;
2023/12/29 12:35:27;;;;;;;3.9;2;;;;;;;11.5;50.04004;936.9803;;;;
2023/12/29 12:37:57;;;;;;;3.3;1.6;;;;;;;11.55;49.8291;936.9765;;;;
2023/12/29 12:40:22;;;;;;;2.8;1.9;;;;;;;11.65;49.75977;936.9436;;;;
2023/12/29 12:42:52;;;;;;;4;1.9;;;;;;;11.67;50.82715;936.9118;;;;
2023/12/29 12:45:23;;;;;;;2.1;1.5;;;;;;;11.69;48.87207;936.8712;;;;
2023/12/29 12:47:52;;;;;;;1.7;1.6;;;;;;;11.76;47.55078;936.8259;;;;
2023/12/29 12:50:27;;;;;;;2.8;1.7;;;;;;;11.74;48.58008;936.8505;;;;
2023/12/29 12:52:52;;;;;;;4.7;1.8;;;;;;;11.73;49.35742;936.8083;;;;
2023/12/29 12:55:20;;;;;;;2.7;1.9;;;;;;;11.74;49.61035;936.778;;;;
2023/12/29 12:57:45;;;;;;;2;1.8;;;;;;;11.73;49.63281;936.7667;;;;
2023/12/29 13:00:17;;;;;;;5.1;2;;;;;;;11.83;48.42871;936.774;;;;
2023/12/29 13:02:47;;;;;;;3.5;2;;;;;;;11.8;48.27832;936.7512;;;;
2023/12/29 13:05:15;;;;;;;3.2;2.2;;;;;;;11.9;47.42871;936.7438;;;;
2023/12/29 13:07:39;;;;;;;3.7;1.7;;;;;;;11.9;48.08203;936.7661;;;;
2023/12/29 13:10:07;;;;;;;3.2;2.1;;;;;;;12;48.17383;936.7767;;;;
2023/12/29 13:12:32;;;;;;;3.7;2.4;;;;;;;12.02;48.29004;936.7794;;;;
2023/12/29 13:15:08;;;;;;;4.3;2.7;;;;;;;12.05;46.95313;936.7971;;;;
2023/12/29 13:17:37;;;;;;;4.5;2.5;;;;;;;12.01;46.73145;936.7385;;;;
2023/12/29 13:20:04;;;;;;;3.3;2;;;;;;;12.05;48.88965;936.8098;;;;
2023/12/29 13:22:28;;;;;;;2.4;1.8;;;;;;;12.06;49.09668;936.7866;;;;
2023/12/29 13:24:52;;;;;;;2.1;1.7;;;;;;;12.02;48.57617;936.8392;;;;
2023/12/29 13:27:20;;;;;;;2.4;1.7;;;;;;;12.01;48.73633;936.8169;;;;
2023/12/29 13:29:45;;;;;;;4.7;1.8;;;;;;;12.1;48.35645;936.8114;;;;
2023/12/29 13:32:11;;;;;;;4.3;1.6;;;;;;;12.13;48.30371;936.7843;;;;
2023/12/29 13:34:37;;;;;;;3.2;1.7;;;;;;;12.13;48.07324;936.7811;;;;
2023/12/29 13:37:03;;;;;;;4.6;2.1;;;;;;;12.04;49.54102;936.7946;;;;
2023/12/29 13:39:29;;;;;;;4.8;2;;;;;;;12.08;48;936.7316;;;;
2023/12/29 13:41:55;;;;;;;3.5;1.8;;;;;;;12.03;48.28027;936.7332;;;;
2023/12/29 13:44:23;;;;;;;6.5;3;;;;;;;11.98;48.6416;936.7535;;;;
2023/12/29 13:46:48;;;;;;;5.9;2.9;;;;;;;12.02;47.94727;936.7603;;;;
2023/12/29 13:49:17;;;;;;;7.8;4.4;;;;;;;11.97;49.68262;936.7159;;;;
2023/12/29 13:51:42;;;;;;;5.6;3.3;;;;;;;11.95;49.88672;936.7662;;;;
2023/12/29 13:54:13;;;;;;;4.6;2.6;;;;;;;12.03;48.77246;936.7388;;;;
2023/12/29 13:56:38;;;;;;;4.4;2;;;;;;;11.99;48.90527;936.704;;;;
2023/12/29 13:59:06;;;;;;;4.5;2.2;;;;;;;11.96;49.22266;936.8516;;;;
2023/12/29 14:01:33;;;;;;;4.6;2.4;;;;;;;11.91;49.8584;936.8539;;;;
2023/12/29 14:04:05;;;;;;;5.5;2.6;;;;;;;11.9;50.64844;936.8251;;;;
2023/12/29 14:06:32;;;;;;;5.1;2.6;;;;;;;11.9;51.20898;936.8858;;;;
2023/12/29 14:08:56;;;;;;;5.5;2.9;;;;;;;11.87;51.38867;936.8937;;;;
2023/12/29 14:11:22;;;;;;;5.8;3.2;;;;;;;11.88;51.16113;936.9536;;;;
2023/12/29 14:13:47;;;;;;;7.3;2.9;;;;;;;11.86;49.78418;936.9879;;;;
2023/12/29 14:16:15;;;;;;;4.9;2.6;;;;;;;11.82;50.76465;936.9782;;;;
2023/12/29 14:18:40;;;;;;;5.7;2.7;;;;;;;11.77;51.20508;936.9934;;;;
2023/12/29 14:21:05;;;;;;;6.6;2.6;;;;;;;11.76;51.01953;936.9998;;;;
2023/12/29 14:23:33;;;;;;;5;2.6;;;;;;;11.73;51.39551;936.9144;;;;
2023/12/29 14:26:03;;;;;;;5.5;2.5;;;;;;;11.71;51.50684;937.0125;;;;
2023/12/29 14:28:28;;;;;;;5.4;3.1;;;;;;;11.64;52.32324;936.997;;;;
2023/12/29 14:30:56;;;;;;;6.2;3;;;;;;;11.57;52.52051;936.9781;;;;
2023/12/29 14:33:21;;;;;;;6.2;2.8;;;;;;;11.51;53.18848;937.0226;;;;
2023/12/29 14:35:47;;;;;;;7.3;3;;;;;;;11.46;54.09668;937.1061;;;;
2023/12/29 14:38:17;;;;;;;9.4;3.5;;;;;;;11.46;53.88086;937.1133;;;;
2023/12/29 14:40:39;;;;;;;36.5;18.6;;;;;;;11.36;54.81641;937.1548;;;;